sensor_id;sensor_type;location;lat;lon;timestamp;pressure;altitude;pressure_sealevel;temperature;humidity
48555;BME280;34336;48.270;16.716;2023-05-11T00:02:22;109325.25;;;18.16;62.50
48555;BME280;34336;48.270;16.716;2023-05-11T00:04:49;109325.25;;;18.16;62.52
48555;BME280;34336;48.270;16.716;2023-05-11T00:07:15;109325.25;;;18.16;63.16
48555;BME280;34336;48.270;16.716;2023-05-11T00:09:42;109325.25;;;18.16;62.91
48555;BME280;34336;48.270;16.716;2023-05-11T00:12:08;109325.25;;;18.16;62.64
48555;BME280;34336;48.270;16.716;2023-05-11T00:14:35;109325.25;;;18.16;62.65
48555;BME280;34336;48.270;16.716;2023-05-11T00:17:02;109325.25;;;18.16;62.60
48555;BME280;34336;48.270;16.716;2023-05-11T00:19:28;109325.25;;;18.16;62.30
48555;BME280;34336;48.270;16.716;2023-05-11T00:21:57;109325.25;;;18.16;62.05
48555;BME280;34336;48.270;16.716;2023-05-11T00:24:24;109325.25;;;18.16;61.76
48555;BME280;34336;48.270;16.716;2023-05-11T00:26:51;109325.25;;;18.16;61.97
48555;BME280;34336;48.270;16.716;2023-05-11T00:29:18;109325.25;;;18.16;62.23
48555;BME280;34336;48.270;16.716;2023-05-11T00:31:44;109325.25;;;18.16;61.82
48555;BME280;34336;48.270;16.716;2023-05-11T00:34:14;109325.25;;;18.16;61.13
48555;BME280;34336;48.270;16.716;2023-05-11T00:36:42;109325.25;;;18.16;61.30
48555;BME280;34336;48.270;16.716;2023-05-11T00:39:09;109325.25;;;18.16;61.37
48555;BME280;34336;48.270;16.716;2023-05-11T00:41:37;109325.25;;;18.16;61.30
48555;BME280;34336;48.270;16.716;2023-05-11T00:44:04;109325.25;;;18.16;60.21
48555;BME280;34336;48.270;16.716;2023-05-11T00:46:31;109325.25;;;18.16;60.13
48555;BME280;34336;48.270;16.716;2023-05-11T00:48:57;109325.25;;;18.16;60.68
48555;BME280;34336;48.270;16.716;2023-05-11T00:51:24;109325.25;;;18.16;60.28
48555;BME280;34336;48.270;16.716;2023-05-11T00:53:51;109325.25;;;18.16;59.78
48555;BME280;34336;48.270;16.716;2023-05-11T00:56:18;109325.25;;;18.16;59.28
48555;BME280;34336;48.270;16.716;2023-05-11T00:58:45;109325.25;;;18.16;59.70
48555;BME280;34336;48.270;16.716;2023-05-11T01:01:12;109325.25;;;18.16;60.16
48555;BME280;34336;48.270;16.716;2023-05-11T01:03:40;109325.25;;;18.16;59.92
48555;BME280;34336;48.270;16.716;2023-05-11T01:06:18;109325.25;;;18.16;60.13
48555;BME280;34336;48.270;16.716;2023-05-11T01:08:54;109325.25;;;18.16;60.30
48555;BME280;34336;48.270;16.716;2023-05-11T01:11:25;109325.25;;;18.16;60.42
48555;BME280;34336;48.270;16.716;2023-05-11T01:14:03;109325.25;;;18.16;60.42
48555;BME280;34336;48.270;16.716;2023-05-11T01:16:34;109325.25;;;18.16;59.64
48555;BME280;34336;48.270;16.716;2023-05-11T01:19:10;109325.25;;;18.16;59.55
48555;BME280;34336;48.270;16.716;2023-05-11T01:21:38;109325.25;;;18.16;59.44
48555;BME280;34336;48.270;16.716;2023-05-11T01:31:55;109325.25;;;18.16;60.27
48555;BME280;34336;48.270;16.716;2023-05-11T01:34:24;109325.25;;;18.16;59.92
48555;BME280;34336;48.270;16.716;2023-05-11T01:36:52;109325.25;;;18.16;60.08
48555;BME280;34336;48.270;16.716;2023-05-11T01:39:21;109325.25;;;18.16;59.82
48555;BME280;34336;48.270;16.716;2023-05-11T01:41:50;109325.25;;;18.16;59.68
48555;BME280;34336;48.270;16.716;2023-05-11T01:44:17;109325.25;;;18.16;59.96
48555;BME280;34336;48.270;16.716;2023-05-11T01:46:45;109325.25;;;18.16;60.15
48555;BME280;34336;48.270;16.716;2023-05-11T01:49:12;109325.25;;;18.16;60.64
48555;BME280;34336;48.270;16.716;2023-05-11T01:51:39;109325.25;;;18.16;59.97
48555;BME280;34336;48.270;16.716;2023-05-11T01:54:07;109325.25;;;18.16;59.48
48555;BME280;34336;48.270;16.716;2023-05-11T01:56:35;109325.25;;;18.16;59.87
48555;BME280;34336;48.270;16.716;2023-05-11T01:59:03;109325.25;;;18.16;60.02
48555;BME280;34336;48.270;16.716;2023-05-11T02:01:30;109325.25;;;18.16;59.76
48555;BME280;34336;48.270;16.716;2023-05-11T02:03:59;109325.25;;;18.16;59.82
48555;BME280;34336;48.270;16.716;2023-05-11T02:06:27;109325.25;;;18.16;59.95
48555;BME280;34336;48.270;16.716;2023-05-11T02:08:55;109325.25;;;18.16;60.28
48555;BME280;34336;48.270;16.716;2023-05-11T02:11:21;109325.25;;;18.16;60.44
48555;BME280;34336;48.270;16.716;2023-05-11T02:13:49;109325.25;;;18.16;60.36
48555;BME280;34336;48.270;16.716;2023-05-11T02:16:17;109325.25;;;18.16;60.55
48555;BME280;34336;48.270;16.716;2023-05-11T02:18:44;109325.25;;;18.16;61.04
48555;BME280;34336;48.270;16.716;2023-05-11T02:21:11;109325.25;;;18.16;60.93
48555;BME280;34336;48.270;16.716;2023-05-11T02:23:40;109325.25;;;18.16;61.26
48555;BME280;34336;48.270;16.716;2023-05-11T02:26:08;109325.25;;;18.16;61.19
48555;BME280;34336;48.270;16.716;2023-05-11T02:28:37;109325.25;;;18.16;61.31
48555;BME280;34336;48.270;16.716;2023-05-11T02:31:08;109325.25;;;18.16;61.02
48555;BME280;34336;48.270;16.716;2023-05-11T02:33:38;109325.25;;;18.16;60.38
48555;BME280;34336;48.270;16.716;2023-05-11T02:36:08;109325.25;;;18.16;60.79
48555;BME280;34336;48.270;16.716;2023-05-11T02:38:38;109325.25;;;18.16;60.71
48555;BME280;34336;48.270;16.716;2023-05-11T02:41:08;109325.25;;;18.16;61.08
48555;BME280;34336;48.270;16.716;2023-05-11T02:43:38;109325.25;;;18.16;61.17
48555;BME280;34336;48.270;16.716;2023-05-11T02:46:13;109325.25;;;18.16;61.40
48555;BME280;34336;48.270;16.716;2023-05-11T02:48:43;109325.25;;;18.16;62.03
48555;BME280;34336;48.270;16.716;2023-05-11T02:51:14;109325.25;;;18.16;62.33
48555;BME280;34336;48.270;16.716;2023-05-11T02:53:46;109325.25;;;18.16;62.43
48555;BME280;34336;48.270;16.716;2023-05-11T02:56:14;109325.25;;;18.16;61.88
48555;BME280;34336;48.270;16.716;2023-05-11T02:58:41;109325.25;;;18.16;61.80
48555;BME280;34336;48.270;16.716;2023-05-11T03:01:18;109325.25;;;18.16;62.44
48555;BME280;34336;48.270;16.716;2023-05-11T03:03:46;109325.25;;;18.16;62.16
48555;BME280;34336;48.270;16.716;2023-05-11T03:06:13;109325.25;;;18.16;62.53
48555;BME280;34336;48.270;16.716;2023-05-11T03:08:40;109325.25;;;18.16;62.39
48555;BME280;34336;48.270;16.716;2023-05-11T03:11:07;109325.25;;;18.16;62.63
48555;BME280;34336;48.270;16.716;2023-05-11T03:13:34;109325.25;;;18.16;62.61
48555;BME280;34336;48.270;16.716;2023-05-11T03:16:03;109325.25;;;18.16;62.69
48555;BME280;34336;48.270;16.716;2023-05-11T03:18:32;109325.25;;;18.16;62.94
48555;BME280;34336;48.270;16.716;2023-05-11T03:20:59;109325.25;;;18.16;63.66
48555;BME280;34336;48.270;16.716;2023-05-11T03:23:27;109325.25;;;18.16;63.26
48555;BME280;34336;48.270;16.716;2023-05-11T03:25:55;109325.25;;;18.16;62.58
48555;BME280;34336;48.270;16.716;2023-05-11T03:28:23;109325.25;;;18.16;62.12
48555;BME280;34336;48.270;16.716;2023-05-11T03:30:58;109325.25;;;18.16;62.50
48555;BME280;34336;48.270;16.716;2023-05-11T03:33:25;109325.25;;;18.16;62.29
48555;BME280;34336;48.270;16.716;2023-05-11T03:35:52;109325.25;;;18.16;62.12
48555;BME280;34336;48.270;16.716;2023-05-11T03:38:22;109325.25;;;18.16;62.22
48555;BME280;34336;48.270;16.716;2023-05-11T03:40:51;109325.25;;;18.16;62.15
48555;BME280;34336;48.270;16.716;2023-05-11T03:43:18;109325.25;;;18.16;61.45
48555;BME280;34336;48.270;16.716;2023-05-11T03:45:50;109325.25;;;18.16;60.94
48555;BME280;34336;48.270;16.716;2023-05-11T03:48:20;109325.25;;;18.16;59.97
48555;BME280;34336;48.270;16.716;2023-05-11T03:50:47;109325.25;;;18.16;57.40
48555;BME280;34336;48.270;16.716;2023-05-11T03:53:14;109325.25;;;18.16;55.16
48555;BME280;34336;48.270;16.716;2023-05-11T03:55:41;109325.25;;;18.16;53.41
48555;BME280;34336;48.270;16.716;2023-05-11T03:58:08;109325.25;;;18.16;53.09
48555;BME280;34336;48.270;16.716;2023-05-11T04:00:39;109325.25;;;18.16;53.18
48555;BME280;34336;48.270;16.716;2023-05-11T04:03:06;109325.25;;;18.16;54.51
48555;BME280;34336;48.270;16.716;2023-05-11T04:05:34;109325.25;;;18.16;54.44
48555;BME280;34336;48.270;16.716;2023-05-11T04:08:03;109325.25;;;18.16;53.72
48555;BME280;34336;48.270;16.716;2023-05-11T04:10:30;109325.25;;;18.16;51.88
48555;BME280;34336;48.270;16.716;2023-05-11T04:12:56;109325.25;;;18.16;50.61
48555;BME280;34336;48.270;16.716;2023-05-11T04:15:23;109325.25;;;18.16;46.69
48555;BME280;34336;48.270;16.716;2023-05-11T04:17:49;109325.25;;;18.16;45.53
48555;BME280;34336;48.270;16.716;2023-05-11T04:20:16;109325.25;;;18.16;44.18
48555;BME280;34336;48.270;16.716;2023-05-11T04:22:43;109325.25;;;18.16;43.51
48555;BME280;34336;48.270;16.716;2023-05-11T04:25:10;109325.25;;;18.16;42.93
48555;BME280;34336;48.270;16.716;2023-05-11T04:27:36;109325.25;;;18.16;42.64
48555;BME280;34336;48.270;16.716;2023-05-11T04:30:03;109325.25;;;18.16;42.77
48555;BME280;34336;48.270;16.716;2023-05-11T04:32:30;109325.25;;;18.16;41.23
48555;BME280;34336;48.270;16.716;2023-05-11T04:34:57;109325.25;;;18.16;42.83
48555;BME280;34336;48.270;16.716;2023-05-11T04:37:27;109325.25;;;18.16;44.19
48555;BME280;34336;48.270;16.716;2023-05-11T04:39:53;109325.25;;;18.16;42.08
48555;BME280;34336;48.270;16.716;2023-05-11T04:42:20;109325.25;;;18.16;42.91
48555;BME280;34336;48.270;16.716;2023-05-11T04:44:53;109325.25;;;18.16;43.19
48555;BME280;34336;48.270;16.716;2023-05-11T04:47:20;109325.25;;;18.16;44.64
48555;BME280;34336;48.270;16.716;2023-05-11T04:49:47;109325.25;;;18.16;43.12
48555;BME280;34336;48.270;16.716;2023-05-11T04:52:14;109325.25;;;18.16;43.99
48555;BME280;34336;48.270;16.716;2023-05-11T04:54:45;109325.25;;;18.16;44.08
48555;BME280;34336;48.270;16.716;2023-05-11T04:57:12;109325.25;;;18.16;42.76
48555;BME280;34336;48.270;16.716;2023-05-11T04:59:39;109325.25;;;18.16;42.05
48555;BME280;34336;48.270;16.716;2023-05-11T05:02:05;109325.25;;;18.16;42.56
48555;BME280;34336;48.270;16.716;2023-05-11T05:04:32;109325.25;;;18.16;43.05
48555;BME280;34336;48.270;16.716;2023-05-11T05:07:01;109325.25;;;18.16;44.22
48555;BME280;34336;48.270;16.716;2023-05-11T05:09:28;109325.25;;;18.16;44.74
48555;BME280;34336;48.270;16.716;2023-05-11T05:11:54;109325.25;;;18.16;45.88
48555;BME280;34336;48.270;16.716;2023-05-11T05:14:21;109325.25;;;18.16;45.83
48555;BME280;34336;48.270;16.716;2023-05-11T05:16:48;109325.25;;;18.16;44.11
48555;BME280;34336;48.270;16.716;2023-05-11T05:19:14;109325.25;;;18.16;43.81
48555;BME280;34336;48.270;16.716;2023-05-11T05:21:41;109325.25;;;18.16;42.69
48555;BME280;34336;48.270;16.716;2023-05-11T05:24:08;109325.25;;;18.16;44.18
48555;BME280;34336;48.270;16.716;2023-05-11T05:26:36;109325.25;;;18.16;43.63
48555;BME280;34336;48.270;16.716;2023-05-11T05:29:04;109325.25;;;18.16;43.79
48555;BME280;34336;48.270;16.716;2023-05-11T05:31:31;109325.25;;;18.16;43.13
48555;BME280;34336;48.270;16.716;2023-05-11T05:33:58;109325.25;;;18.16;42.57
48555;BME280;34336;48.270;16.716;2023-05-11T05:36:26;109325.25;;;18.16;41.83
48555;BME280;34336;48.270;16.716;2023-05-11T05:38:52;109325.25;;;18.16;43.16
48555;BME280;34336;48.270;16.716;2023-05-11T05:41:19;109325.25;;;18.16;42.98
48555;BME280;34336;48.270;16.716;2023-05-11T05:43:47;109325.25;;;18.16;43.38
48555;BME280;34336;48.270;16.716;2023-05-11T05:46:15;109325.25;;;18.16;43.74
48555;BME280;34336;48.270;16.716;2023-05-11T05:48:42;109325.25;;;18.16;44.03
48555;BME280;34336;48.270;16.716;2023-05-11T05:51:08;109325.25;;;18.16;42.75
48555;BME280;34336;48.270;16.716;2023-05-11T05:53:37;109325.25;;;18.16;43.83
48555;BME280;34336;48.270;16.716;2023-05-11T05:56:04;109325.25;;;18.16;41.98
48555;BME280;34336;48.270;16.716;2023-05-11T05:58:31;109325.25;;;18.16;42.13
48555;BME280;34336;48.270;16.716;2023-05-11T06:00:57;109325.25;;;18.16;42.64
48555;BME280;34336;48.270;16.716;2023-05-11T06:03:24;109325.25;;;18.16;44.93
48555;BME280;34336;48.270;16.716;2023-05-11T06:05:55;109325.25;;;18.16;44.85
48555;BME280;34336;48.270;16.716;2023-05-11T06:08:22;109325.25;;;18.16;45.04
48555;BME280;34336;48.270;16.716;2023-05-11T06:10:48;109325.25;;;18.16;45.50
48555;BME280;34336;48.270;16.716;2023-05-11T06:13:16;109325.25;;;18.16;46.81
48555;BME280;34336;48.270;16.716;2023-05-11T06:15:43;109325.25;;;18.16;46.00
48555;BME280;34336;48.270;16.716;2023-05-11T06:18:30;109325.25;;;18.16;45.71
48555;BME280;34336;48.270;16.716;2023-05-11T06:20:57;109325.25;;;18.16;47.13
48555;BME280;34336;48.270;16.716;2023-05-11T06:23:25;109325.25;;;18.16;47.08
48555;BME280;34336;48.270;16.716;2023-05-11T06:25:53;109325.25;;;18.16;48.56
48555;BME280;34336;48.270;16.716;2023-05-11T06:28:19;109325.25;;;18.16;47.68
48555;BME280;34336;48.270;16.716;2023-05-11T06:30:54;109325.25;;;18.16;47.45
48555;BME280;34336;48.270;16.716;2023-05-11T06:33:21;109325.25;;;18.16;46.26
48555;BME280;34336;48.270;16.716;2023-05-11T06:35:48;109325.25;;;18.16;45.78
48555;BME280;34336;48.270;16.716;2023-05-11T06:38:15;109325.25;;;18.16;45.45
48555;BME280;34336;48.270;16.716;2023-05-11T06:40:41;109325.25;;;18.16;45.63
48555;BME280;34336;48.270;16.716;2023-05-11T06:43:08;109325.25;;;18.16;45.73
48555;BME280;34336;48.270;16.716;2023-05-11T06:45:46;109325.25;;;18.16;45.39
48555;BME280;34336;48.270;16.716;2023-05-11T06:48:13;109325.25;;;18.16;47.50
48555;BME280;34336;48.270;16.716;2023-05-11T06:50:40;109325.25;;;18.16;46.42
48555;BME280;34336;48.270;16.716;2023-05-11T06:53:10;109325.25;;;18.16;46.81
48555;BME280;34336;48.270;16.716;2023-05-11T06:55:37;109325.25;;;18.16;45.73
48555;BME280;34336;48.270;16.716;2023-05-11T06:58:04;109325.25;;;18.16;46.15
48555;BME280;34336;48.270;16.716;2023-05-11T07:00:31;109325.25;;;18.16;45.66
48555;BME280;34336;48.270;16.716;2023-05-11T07:02:57;109325.25;;;18.16;44.32
48555;BME280;34336;48.270;16.716;2023-05-11T07:05:24;109325.25;;;18.16;45.44
48555;BME280;34336;48.270;16.716;2023-05-11T07:07:50;109325.25;;;18.16;45.13
48555;BME280;34336;48.270;16.716;2023-05-11T07:10:17;109325.25;;;18.16;44.87
48555;BME280;34336;48.270;16.716;2023-05-11T07:12:44;109325.25;;;18.16;43.46
48555;BME280;34336;48.270;16.716;2023-05-11T07:15:10;109325.25;;;18.16;45.25
48555;BME280;34336;48.270;16.716;2023-05-11T07:17:37;109325.25;;;18.16;42.95
48555;BME280;34336;48.270;16.716;2023-05-11T07:20:04;109325.25;;;18.16;43.14
48555;BME280;34336;48.270;16.716;2023-05-11T07:22:31;109325.25;;;18.16;42.76
48555;BME280;34336;48.270;16.716;2023-05-11T07:24:59;109325.25;;;18.16;42.83
48555;BME280;34336;48.270;16.716;2023-05-11T07:27:25;109325.25;;;18.16;43.80
48555;BME280;34336;48.270;16.716;2023-05-11T07:29:52;109325.25;;;18.16;44.78
48555;BME280;34336;48.270;16.716;2023-05-11T07:32:18;109325.25;;;18.16;44.20
48555;BME280;34336;48.270;16.716;2023-05-11T07:34:45;109325.25;;;18.16;43.17
48555;BME280;34336;48.270;16.716;2023-05-11T07:37:11;109325.25;;;18.16;43.77
48555;BME280;34336;48.270;16.716;2023-05-11T07:39:38;109325.25;;;18.16;43.86
48555;BME280;34336;48.270;16.716;2023-05-11T07:42:05;109325.25;;;18.16;43.69
48555;BME280;34336;48.270;16.716;2023-05-11T07:44:31;109325.25;;;18.16;42.88
48555;BME280;34336;48.270;16.716;2023-05-11T07:46:58;109325.25;;;18.16;44.97
48555;BME280;34336;48.270;16.716;2023-05-11T07:49:25;109325.25;;;18.16;43.73
48555;BME280;34336;48.270;16.716;2023-05-11T07:52:08;109325.25;;;18.16;45.54
48555;BME280;34336;48.270;16.716;2023-05-11T07:54:35;109325.25;;;18.16;43.22
48555;BME280;34336;48.270;16.716;2023-05-11T07:57:01;109325.25;;;18.16;44.68
48555;BME280;34336;48.270;16.716;2023-05-11T07:59:29;109325.25;;;18.16;43.41
48555;BME280;34336;48.270;16.716;2023-05-11T08:01:56;109325.25;;;18.16;44.11
48555;BME280;34336;48.270;16.716;2023-05-11T08:04:23;109325.25;;;18.16;44.07
48555;BME280;34336;48.270;16.716;2023-05-11T08:06:49;109325.25;;;18.16;44.98
48555;BME280;34336;48.270;16.716;2023-05-11T08:09:16;109325.25;;;18.16;46.68
48555;BME280;34336;48.270;16.716;2023-05-11T08:11:42;109325.25;;;18.16;46.61
48555;BME280;34336;48.270;16.716;2023-05-11T08:14:09;109325.25;;;18.16;43.19
48555;BME280;34336;48.270;16.716;2023-05-11T08:16:36;109325.25;;;18.16;45.77
48555;BME280;34336;48.270;16.716;2023-05-11T08:19:03;109325.25;;;18.16;46.73
48555;BME280;34336;48.270;16.716;2023-05-11T08:21:30;109325.25;;;18.16;44.26
48555;BME280;34336;48.270;16.716;2023-05-11T08:23:58;109325.25;;;18.16;45.39
48555;BME280;34336;48.270;16.716;2023-05-11T08:26:24;109325.25;;;18.16;43.94
48555;BME280;34336;48.270;16.716;2023-05-11T08:28:51;109325.25;;;18.16;43.54
48555;BME280;34336;48.270;16.716;2023-05-11T08:31:18;109325.25;;;18.16;44.60
48555;BME280;34336;48.270;16.716;2023-05-11T08:33:44;109325.25;;;18.16;44.13
48555;BME280;34336;48.270;16.716;2023-05-11T08:36:11;109325.25;;;18.16;45.89
48555;BME280;34336;48.270;16.716;2023-05-11T08:38:41;109325.25;;;18.16;43.64
48555;BME280;34336;48.270;16.716;2023-05-11T08:41:10;109325.25;;;18.16;45.51
48555;BME280;34336;48.270;16.716;2023-05-11T08:43:36;109325.25;;;18.16;46.65
48555;BME280;34336;48.270;16.716;2023-05-11T08:46:05;109325.25;;;18.16;44.78
48555;BME280;34336;48.270;16.716;2023-05-11T08:48:33;109325.25;;;18.16;44.84
48555;BME280;34336;48.270;16.716;2023-05-11T08:51:00;109325.25;;;18.16;43.04
48555;BME280;34336;48.270;16.716;2023-05-11T08:53:28;109325.25;;;18.16;43.31
48555;BME280;34336;48.270;16.716;2023-05-11T08:55:56;109325.25;;;18.16;42.86
48555;BME280;34336;48.270;16.716;2023-05-11T08:58:23;109325.25;;;18.16;43.96
48555;BME280;34336;48.270;16.716;2023-05-11T09:00:50;109325.25;;;18.16;43.42
48555;BME280;34336;48.270;16.716;2023-05-11T09:03:17;109325.25;;;18.16;44.12
48555;BME280;34336;48.270;16.716;2023-05-11T09:05:45;109325.25;;;18.16;42.49
48555;BME280;34336;48.270;16.716;2023-05-11T09:08:12;109325.25;;;18.16;43.75
48555;BME280;34336;48.270;16.716;2023-05-11T09:10:39;109325.25;;;18.16;43.83
48555;BME280;34336;48.270;16.716;2023-05-11T09:13:07;109325.25;;;18.16;44.36
48555;BME280;34336;48.270;16.716;2023-05-11T09:15:33;109325.25;;;18.16;42.99
48555;BME280;34336;48.270;16.716;2023-05-11T09:18:04;109325.25;;;18.16;42.85
48555;BME280;34336;48.270;16.716;2023-05-11T09:20:31;109325.25;;;18.16;43.34
48555;BME280;34336;48.270;16.716;2023-05-11T09:22:58;109325.25;;;18.16;43.86
48555;BME280;34336;48.270;16.716;2023-05-11T09:25:25;109325.25;;;18.16;43.71
48555;BME280;34336;48.270;16.716;2023-05-11T09:27:54;109325.25;;;18.16;42.95
48555;BME280;34336;48.270;16.716;2023-05-11T09:30:22;109325.25;;;18.16;43.43
48555;BME280;34336;48.270;16.716;2023-05-11T09:32:50;109325.25;;;18.16;42.79
48555;BME280;34336;48.270;16.716;2023-05-11T09:35:18;109325.25;;;18.16;41.82
48555;BME280;34336;48.270;16.716;2023-05-11T09:38:07;109325.25;;;18.16;43.34
48555;BME280;34336;48.270;16.716;2023-05-11T09:40:33;109325.25;;;18.16;44.25
48555;BME280;34336;48.270;16.716;2023-05-11T09:43:01;109325.25;;;18.16;45.65
48555;BME280;34336;48.270;16.716;2023-05-11T09:45:38;109325.25;;;18.16;45.07
48555;BME280;34336;48.270;16.716;2023-05-11T09:48:06;109325.25;;;18.16;44.03
48555;BME280;34336;48.270;16.716;2023-05-11T09:50:39;109325.25;;;18.16;44.52
48555;BME280;34336;48.270;16.716;2023-05-11T09:53:06;109325.25;;;18.16;43.14
48555;BME280;34336;48.270;16.716;2023-05-11T09:55:32;109325.25;;;18.16;42.57
48555;BME280;34336;48.270;16.716;2023-05-11T09:57:59;109325.25;;;18.16;45.02
48555;BME280;34336;48.270;16.716;2023-05-11T10:00:26;109325.25;;;18.16;43.34
48555;BME280;34336;48.270;16.716;2023-05-11T10:05:26;109325.25;;;18.16;44.66
48555;BME280;34336;48.270;16.716;2023-05-11T10:07:59;109325.25;;;18.16;43.87
48555;BME280;34336;48.270;16.716;2023-05-11T10:10:27;109325.25;;;18.16;43.41
48555;BME280;34336;48.270;16.716;2023-05-11T10:12:55;109325.25;;;18.16;44.54
48555;BME280;34336;48.270;16.716;2023-05-11T10:15:23;109325.25;;;18.16;43.39
48555;BME280;34336;48.270;16.716;2023-05-11T10:17:52;109325.25;;;18.16;42.90
48555;BME280;34336;48.270;16.716;2023-05-11T10:20:19;109325.25;;;18.16;43.72
48555;BME280;34336;48.270;16.716;2023-05-11T10:22:46;109325.25;;;18.16;43.59
48555;BME280;34336;48.270;16.716;2023-05-11T10:25:15;109325.25;;;18.16;44.70
48555;BME280;34336;48.270;16.716;2023-05-11T10:27:42;109325.25;;;18.16;42.88
48555;BME280;34336;48.270;16.716;2023-05-11T10:30:09;109325.25;;;18.16;43.67
48555;BME280;34336;48.270;16.716;2023-05-11T10:32:36;109325.25;;;18.16;42.48
48555;BME280;34336;48.270;16.716;2023-05-11T10:35:06;109325.25;;;18.16;43.26
48555;BME280;34336;48.270;16.716;2023-05-11T10:37:32;109325.25;;;18.16;41.01
48555;BME280;34336;48.270;16.716;2023-05-11T10:39:59;109325.25;;;18.16;41.27
48555;BME280;34336;48.270;16.716;2023-05-11T10:55:30;109325.25;;;18.16;41.61
48555;BME280;34336;48.270;16.716;2023-05-11T10:58:07;109325.25;;;18.16;44.09
48555;BME280;34336;48.270;16.716;2023-05-11T11:01:08;109325.25;;;18.16;40.72
48555;BME280;34336;48.270;16.716;2023-05-11T11:03:31;109325.25;;;18.16;40.61
48555;BME280;34336;48.270;16.716;2023-05-11T11:05:58;109325.25;;;18.16;41.32
48555;BME280;34336;48.270;16.716;2023-05-11T11:08:26;109325.25;;;18.16;41.56
48555;BME280;34336;48.270;16.716;2023-05-11T11:10:53;109325.25;;;18.16;42.35
48555;BME280;34336;48.270;16.716;2023-05-11T11:13:21;109325.25;;;18.16;41.22
48555;BME280;34336;48.270;16.716;2023-05-11T11:20:49;109325.25;;;18.16;41.74
48555;BME280;34336;48.270;16.716;2023-05-11T11:26:02;109325.25;;;18.16;40.32
48555;BME280;34336;48.270;16.716;2023-05-11T11:31:30;109325.25;;;18.16;42.03
48555;BME280;34336;48.270;16.716;2023-05-11T11:33:58;109325.25;;;18.16;39.25
48555;BME280;34336;48.270;16.716;2023-05-11T11:42:06;109325.25;;;18.16;38.14
48555;BME280;34336;48.270;16.716;2023-05-11T11:44:33;109325.25;;;18.16;40.34
48555;BME280;34336;48.270;16.716;2023-05-11T11:47:16;109325.25;;;18.16;41.85
48555;BME280;34336;48.270;16.716;2023-05-11T11:49:47;109325.25;;;18.16;41.79
48555;BME280;34336;48.270;16.716;2023-05-11T11:54:57;109325.25;;;18.16;40.47
48555;BME280;34336;48.270;16.716;2023-05-11T12:02:25;109325.25;;;18.16;40.93
48555;BME280;34336;48.270;16.716;2023-05-11T12:04:56;109325.25;;;18.16;40.22
48555;BME280;34336;48.270;16.716;2023-05-11T12:07:23;109325.25;;;18.16;39.27
48555;BME280;34336;48.270;16.716;2023-05-11T12:09:50;109325.25;;;18.16;40.18
48555;BME280;34336;48.270;16.716;2023-05-11T12:12:20;109325.25;;;18.16;39.29
48555;BME280;34336;48.270;16.716;2023-05-11T12:14:47;109325.25;;;18.16;39.58
48555;BME280;34336;48.270;16.716;2023-05-11T12:17:23;109325.25;;;18.16;41.19
48555;BME280;34336;48.270;16.716;2023-05-11T12:19:50;109325.25;;;18.16;37.75
48555;BME280;34336;48.270;16.716;2023-05-11T12:22:20;109325.25;;;18.16;40.18
48555;BME280;34336;48.270;16.716;2023-05-11T12:24:47;109325.25;;;18.16;39.95
48555;BME280;34336;48.270;16.716;2023-05-11T12:27:17;109325.25;;;18.16;39.10
48555;BME280;34336;48.270;16.716;2023-05-11T12:29:47;109325.25;;;18.16;39.39
48555;BME280;34336;48.270;16.716;2023-05-11T12:32:14;109325.25;;;18.16;37.49
48555;BME280;34336;48.270;16.716;2023-05-11T12:34:41;109325.25;;;18.16;38.04
48555;BME280;34336;48.270;16.716;2023-05-11T12:37:07;109325.25;;;18.16;39.89
48555;BME280;34336;48.270;16.716;2023-05-11T12:39:34;109325.25;;;18.16;38.25
48555;BME280;34336;48.270;16.716;2023-05-11T12:42:01;109325.25;;;18.16;40.55
48555;BME280;34336;48.270;16.716;2023-05-11T12:44:28;109325.25;;;18.16;39.28
48555;BME280;34336;48.270;16.716;2023-05-11T12:46:55;109325.25;;;18.16;41.26
48555;BME280;34336;48.270;16.716;2023-05-11T12:49:22;109325.25;;;18.16;40.61
48555;BME280;34336;48.270;16.716;2023-05-11T12:54:25;109325.25;;;18.16;38.49
48555;BME280;34336;48.270;16.716;2023-05-11T12:56:52;109325.25;;;18.16;38.31
48555;BME280;34336;48.270;16.716;2023-05-11T13:00:03;109325.25;;;18.16;40.79
48555;BME280;34336;48.270;16.716;2023-05-11T13:04:35;109325.25;;;18.16;38.31
48555;BME280;34336;48.270;16.716;2023-05-11T13:07:02;109325.25;;;18.16;37.86
48555;BME280;34336;48.270;16.716;2023-05-11T13:09:29;109325.25;;;18.16;37.33
48555;BME280;34336;48.270;16.716;2023-05-11T13:15:09;109325.25;;;18.16;37.71
48555;BME280;34336;48.270;16.716;2023-05-11T13:17:40;109325.25;;;18.16;38.13
48555;BME280;34336;48.270;16.716;2023-05-11T13:22:46;109325.25;;;18.16;36.91
48555;BME280;34336;48.270;16.716;2023-05-11T13:25:17;109325.25;;;18.16;38.39
48555;BME280;34336;48.270;16.716;2023-05-11T13:27:44;109325.25;;;18.16;37.46
48555;BME280;34336;48.270;16.716;2023-05-11T13:30:11;109325.25;;;18.16;37.02
48555;BME280;34336;48.270;16.716;2023-05-11T13:32:38;109325.25;;;18.16;37.01
48555;BME280;34336;48.270;16.716;2023-05-11T13:35:05;109325.25;;;18.16;37.69
48555;BME280;34336;48.270;16.716;2023-05-11T13:37:32;109325.25;;;18.16;37.66
48555;BME280;34336;48.270;16.716;2023-05-11T13:39:58;109325.25;;;18.16;37.09
48555;BME280;34336;48.270;16.716;2023-05-11T13:42:26;109325.25;;;18.16;38.89
48555;BME280;34336;48.270;16.716;2023-05-11T13:44:52;109325.25;;;18.16;38.35